Terminal Aerodrome Forecast
Issued by NWS

Home | Current Version | Previous Version | Text Only | Print | Product List | Glossary On
Versions: 1 2 3 4 5 6 7 8 9 10 11 12 13 14 15 16 17 18 19 20 21 22 23 24 25 26 27 28
000
FTUS41 KOKX 220300 AAB
TAFGON
TAF AMD
KGON 220323Z 2203/2224 02007KT P6SM VCSH SCT008 BKN100
      TEMPO 2203/2207 BKN008
     FM220700 03008KT P6SM BKN050
     FM221000 02010KT 6SM BR VCSH BKN015
     FM221600 02013G21KT 6SM BR VCSH BKN015
     FM222100 02015G23KT 5SM -RA BR BKN010=

USA.gov is the U.S. government's official web portal to all federal, state and local government web resources and services.